createdAt,value
2018-12-27T00:00:31.412Z,1.83
2018-12-27T00:03:36.661Z,1.85
2018-12-27T00:06:42.021Z,1.85
2018-12-27T00:09:47.296Z,1.88
2018-12-27T00:12:52.756Z,1.90
2018-12-27T00:15:58.032Z,1.88
2018-12-27T00:19:03.446Z,1.90
2018-12-27T00:22:08.720Z,1.90
2018-12-27T00:25:14.239Z,1.88
2018-12-27T00:28:19.519Z,1.87
2018-12-27T00:31:25.082Z,1.89
2018-12-27T00:34:30.571Z,1.90
2018-12-27T00:37:36.233Z,1.88
2018-12-27T00:40:41.712Z,1.88
2018-12-27T00:43:47.637Z,1.90
2018-12-27T00:46:53.117Z,1.90
2018-12-27T00:49:58.689Z,1.93
2018-12-27T00:53:04.168Z,1.92
2018-12-27T00:56:09.835Z,1.92
2018-12-27T00:59:15.311Z,1.92
2018-12-27T01:02:20.938Z,1.95
2018-12-27T01:05:26.418Z,1.94
2018-12-27T01:08:32.031Z,1.94
2018-12-27T01:11:37.512Z,1.92
2018-12-27T01:14:43.131Z,1.96
2018-12-27T01:17:48.618Z,1.98
2018-12-27T01:20:54.231Z,1.97
2018-12-27T01:24:02.687Z,1.95
2018-12-27T01:27:08.249Z,1.97
2018-12-27T01:30:13.823Z,1.99
2018-12-27T01:33:19.495Z,1.97
2018-12-27T01:36:24.976Z,1.97
2018-12-27T01:39:30.597Z,1.97
2018-12-27T01:42:36.076Z,1.97
2018-12-27T01:45:41.695Z,1.98
2018-12-27T01:48:47.177Z,1.98
2018-12-27T01:51:52.792Z,1.98
2018-12-27T01:54:58.272Z,1.99
2018-12-27T01:58:03.892Z,2.00
2018-12-27T02:01:09.373Z,1.99
2018-12-27T02:04:15.012Z,1.99
2018-12-27T02:07:20.499Z,2.02
2018-12-27T02:10:26.091Z,2.01
2018-12-27T02:13:31.572Z,2.01
2018-12-27T02:16:37.188Z,2.02
2018-12-27T02:19:42.668Z,2.04
2018-12-27T02:22:48.395Z,2.05
2018-12-27T02:25:53.874Z,2.07
2018-12-27T02:28:59.490Z,2.07
2018-12-27T02:32:05.014Z,2.07
2018-12-27T02:35:10.590Z,2.09
2018-12-27T02:38:16.075Z,2.10
2018-12-27T02:41:21.637Z,2.11
2018-12-27T02:44:27.117Z,2.09
2018-12-27T02:47:32.889Z,2.10
2018-12-27T02:50:38.367Z,2.11
2018-12-27T02:53:43.988Z,2.12
2018-12-27T02:56:49.515Z,2.15
2018-12-27T02:59:55.188Z,2.16
2018-12-27T03:03:00.669Z,2.17
2018-12-27T03:06:06.387Z,2.16
2018-12-27T03:09:11.886Z,2.18
2018-12-27T03:12:17.492Z,2.21
2018-12-27T03:15:22.988Z,2.22
2018-12-27T03:18:28.592Z,2.25
2018-12-27T03:21:34.074Z,2.27
2018-12-27T03:24:39.793Z,2.27
2018-12-27T03:27:45.274Z,2.28
2018-12-27T03:30:50.899Z,2.29
2018-12-27T03:33:56.376Z,2.31
2018-12-27T03:37:01.983Z,2.32
2018-12-27T03:40:07.464Z,2.37
2018-12-27T03:43:13.188Z,2.39
2018-12-27T03:46:18.665Z,2.40
2018-12-27T03:49:24.284Z,2.43
2018-12-27T03:52:30.257Z,2.45
2018-12-27T03:55:35.821Z,2.47
2018-12-27T03:58:41.307Z,2.49
2018-12-27T04:01:47.299Z,2.51
2018-12-27T04:04:52.780Z,2.55
2018-12-27T04:07:58.503Z,2.56
2018-12-27T04:11:04.011Z,2.59
2018-12-27T04:14:09.601Z,2.59
2018-12-27T04:17:14.928Z,2.63
2018-12-27T04:20:20.391Z,2.64
2018-12-27T04:23:26.776Z,2.65
2018-12-27T04:26:32.128Z,2.66
2018-12-27T04:29:37.426Z,2.67
2018-12-27T04:32:44.302Z,2.69
2018-12-27T04:35:51.085Z,2.71
2018-12-27T04:38:57.070Z,2.71
2018-12-27T04:42:02.880Z,2.74
2018-12-27T04:45:08.377Z,2.75
2018-12-27T04:48:13.657Z,2.77
2018-12-27T04:51:19.025Z,2.77
2018-12-27T04:54:24.289Z,2.79
2018-12-27T04:57:29.756Z,2.80
2018-12-27T05:00:35.034Z,2.82
2018-12-27T05:03:40.459Z,2.83
2018-12-27T05:06:45.723Z,2.86
2018-12-27T05:09:51.210Z,2.87
2018-12-27T05:12:56.557Z,2.89
2018-12-27T05:16:01.924Z,2.91
2018-12-27T05:19:07.198Z,2.91
2018-12-27T05:22:12.607Z,2.93
2018-12-27T05:25:17.893Z,2.94
2018-12-27T05:28:23.316Z,2.96
2018-12-27T05:31:28.592Z,2.98
2018-12-27T05:34:33.987Z,3.01
2018-12-27T05:37:39.263Z,3.02
2018-12-27T05:40:44.676Z,3.06
2018-12-27T05:43:49.948Z,3.10
2018-12-27T05:46:55.308Z,3.12
2018-12-27T05:50:00.586Z,3.16
2018-12-27T05:53:06.055Z,3.21
2018-12-27T05:56:11.325Z,3.24
2018-12-27T05:59:16.743Z,3.27
2018-12-27T06:02:22.018Z,3.30
2018-12-27T06:05:27.447Z,3.33
2018-12-27T06:08:32.715Z,3.38
2018-12-27T06:11:38.222Z,3.42
2018-12-27T06:14:43.491Z,3.44
2018-12-27T06:17:48.915Z,3.46
2018-12-27T06:20:54.189Z,3.48
2018-12-27T06:23:59.539Z,3.49
2018-12-27T06:27:04.815Z,3.50
2018-12-27T06:30:10.189Z,3.50
2018-12-27T06:33:15.470Z,3.49
2018-12-27T06:36:20.977Z,3.50
2018-12-27T06:39:26.256Z,3.49
2018-12-27T06:42:31.672Z,3.48
2018-12-27T06:45:36.949Z,3.48
2018-12-27T06:48:42.355Z,3.47
2018-12-27T06:51:47.636Z,3.46
2018-12-27T06:54:53.049Z,3.41
2018-12-27T06:57:58.319Z,3.39
2018-12-27T07:01:03.736Z,3.31
2018-12-27T07:04:09.012Z,3.29
2018-12-27T07:07:14.424Z,3.25
2018-12-27T07:10:19.700Z,3.23
2018-12-27T07:13:25.421Z,3.23
2018-12-27T07:16:30.763Z,3.22
2018-12-27T07:19:36.213Z,3.19
2018-12-27T07:22:41.488Z,3.17
2018-12-27T07:25:46.903Z,3.14
2018-12-27T07:28:52.256Z,3.11
2018-12-27T07:31:57.693Z,3.08
2018-12-27T07:35:02.975Z,3.07
2018-12-27T07:38:08.493Z,3.06
2018-12-27T07:41:13.769Z,3.04
2018-12-27T07:44:19.182Z,3.05
2018-12-27T07:47:24.512Z,3.08
2018-12-27T07:50:29.969Z,3.08
2018-12-27T07:53:35.292Z,3.11
2018-12-27T07:56:40.782Z,3.12
2018-12-27T07:59:46.121Z,3.14
2018-12-27T08:02:51.758Z,3.17
2018-12-27T08:05:57.041Z,3.18
2018-12-27T08:09:02.450Z,3.22
2018-12-27T08:12:07.728Z,3.22
2018-12-27T08:15:13.309Z,3.24
2018-12-27T08:18:18.587Z,3.25
2018-12-27T08:21:24.028Z,3.26
2018-12-27T08:24:29.349Z,3.26
2018-12-27T08:27:34.817Z,3.29
2018-12-27T08:30:40.092Z,3.30
2018-12-27T08:33:45.506Z,3.31
2018-12-27T08:36:50.788Z,3.33
2018-12-27T08:39:56.196Z,3.34
2018-12-27T08:43:01.481Z,3.35
2018-12-27T08:46:06.929Z,3.35
2018-12-27T08:49:12.206Z,3.36
2018-12-27T08:52:17.600Z,3.36
2018-12-27T08:55:22.878Z,3.38
2018-12-27T08:58:28.365Z,3.41
2018-12-27T09:01:33.640Z,3.41
2018-12-27T09:04:39.054Z,3.43
2018-12-27T09:07:44.328Z,3.48
2018-12-27T09:10:49.746Z,3.48
2018-12-27T09:13:55.024Z,3.51
2018-12-27T09:17:00.640Z,3.53
2018-12-27T09:20:09.302Z,3.58
2018-12-27T09:23:14.705Z,3.58
2018-12-27T09:26:20.308Z,3.62
2018-12-27T09:29:25.665Z,3.62
2018-12-27T09:32:30.941Z,3.64
2018-12-27T09:35:36.751Z,3.64
2018-12-27T09:38:42.025Z,3.66
2018-12-27T09:41:47.497Z,3.70
2018-12-27T09:44:52.842Z,3.72
2018-12-27T09:47:58.337Z,3.75
2018-12-27T09:51:03.641Z,3.80
2018-12-27T09:54:09.072Z,3.86
2018-12-27T09:57:14.422Z,3.90
2018-12-27T10:00:19.865Z,3.97
2018-12-27T10:03:25.147Z,4.01
2018-12-27T10:06:30.562Z,4.07
2018-12-27T10:09:35.839Z,4.11
2018-12-27T10:12:41.245Z,4.17
2018-12-27T10:15:46.536Z,4.18
2018-12-27T10:18:51.933Z,4.20
2018-12-27T10:21:57.264Z,4.21
2018-12-27T10:25:02.734Z,4.23
2018-12-27T10:28:08.005Z,4.25
2018-12-27T10:31:13.492Z,4.27
2018-12-27T10:34:18.833Z,4.30
2018-12-27T10:37:24.214Z,4.31
2018-12-27T10:40:29.490Z,4.33
2018-12-27T10:43:34.996Z,4.33
2018-12-27T10:46:40.278Z,4.35
2018-12-27T10:49:46.003Z,4.38
2018-12-27T10:52:51.318Z,4.38
2018-12-27T10:55:56.799Z,4.42
2018-12-27T10:59:02.073Z,4.44
2018-12-27T11:02:07.477Z,4.46
2018-12-27T11:05:12.759Z,4.47
2018-12-27T11:08:18.159Z,4.50
2018-12-27T11:11:23.440Z,4.51
2018-12-27T11:14:29.113Z,4.54
2018-12-27T11:17:34.465Z,4.54
2018-12-27T11:20:40.054Z,4.57
2018-12-27T11:23:45.379Z,4.57
2018-12-27T11:26:50.854Z,4.60
2018-12-27T11:29:56.126Z,4.61
2018-12-27T11:33:01.548Z,4.59
2018-12-27T11:36:06.818Z,4.60
2018-12-27T11:39:12.182Z,4.61
2018-12-27T11:42:17.460Z,4.62
2018-12-27T11:45:22.914Z,4.63
2018-12-27T11:48:28.188Z,4.63
2018-12-27T11:51:33.607Z,4.66
2018-12-27T11:54:38.883Z,4.66
2018-12-27T11:57:44.397Z,4.67
2018-12-27T12:00:49.673Z,4.68
2018-12-27T12:03:55.084Z,4.68
2018-12-27T12:07:00.360Z,4.68
2018-12-27T12:10:08.234Z,4.69
2018-12-27T12:13:13.514Z,4.69
2018-12-27T12:16:19.026Z,4.71
2018-12-27T12:19:24.306Z,4.75
2018-12-27T12:22:29.817Z,4.75
2018-12-27T12:25:35.168Z,4.77
2018-12-27T12:28:40.867Z,4.78
2018-12-27T12:31:46.145Z,4.79
2018-12-27T12:34:51.606Z,4.81
2018-12-27T12:37:57.492Z,4.79
2018-12-27T12:41:02.909Z,4.82
2018-12-27T12:44:08.189Z,4.84
2018-12-27T12:47:13.598Z,4.84
2018-12-27T12:50:18.875Z,4.84
2018-12-27T12:53:24.281Z,4.85
2018-12-27T12:56:29.613Z,4.85
2018-12-27T12:59:35.085Z,4.85
2018-12-27T13:02:40.359Z,4.85
2018-12-27T13:05:45.775Z,4.86
2018-12-27T13:08:51.051Z,4.85
2018-12-27T13:11:56.459Z,4.86
2018-12-27T13:15:01.733Z,4.88
2018-12-27T13:18:07.149Z,4.91
2018-12-27T13:21:12.428Z,4.91
2018-12-27T13:24:17.850Z,4.92
2018-12-27T13:27:23.163Z,4.93
2018-12-27T13:30:28.984Z,4.92
2018-12-27T13:33:34.513Z,4.93
2018-12-27T13:36:42.620Z,4.92
2018-12-27T13:39:47.901Z,4.94
2018-12-27T13:42:53.343Z,4.93
2018-12-27T13:45:58.619Z,4.92
2018-12-27T13:49:04.078Z,4.92
2018-12-27T13:52:09.358Z,4.94
2018-12-27T13:55:15.993Z,4.95
2018-12-27T13:58:21.272Z,4.95
2018-12-27T14:01:26.680Z,4.97
2018-12-27T14:04:31.969Z,4.97
2018-12-27T14:07:37.628Z,4.96
2018-12-27T14:10:42.901Z,4.97
2018-12-27T14:13:48.369Z,4.97
2018-12-27T14:16:53.649Z,4.97
2018-12-27T14:19:59.054Z,4.97
2018-12-27T14:23:04.336Z,4.96
2018-12-27T14:26:10.105Z,4.96
2018-12-27T14:29:15.376Z,4.97
2018-12-27T14:32:20.846Z,4.95
2018-12-27T14:35:26.274Z,4.98
2018-12-27T14:38:31.737Z,4.96
2018-12-27T14:41:37.021Z,4.98
2018-12-27T14:44:42.380Z,5.01
2018-12-27T14:47:47.723Z,5.04
2018-12-27T14:50:53.126Z,5.07
2018-12-27T14:53:58.404Z,5.07
2018-12-27T14:57:03.807Z,5.09
2018-12-27T15:00:11.997Z,5.09
2018-12-27T15:03:17.464Z,5.11
2018-12-27T15:06:22.759Z,5.11
2018-12-27T15:09:28.119Z,5.13
2018-12-27T15:12:33.477Z,5.14
2018-12-27T15:15:38.955Z,5.14
2018-12-27T15:18:44.243Z,5.15
2018-12-27T15:21:49.638Z,5.16
2018-12-27T15:24:54.916Z,5.16
2018-12-27T15:28:00.735Z,5.18
2018-12-27T15:31:06.587Z,5.18
2018-12-27T15:34:12.038Z,5.21
2018-12-27T15:37:17.312Z,5.21
2018-12-27T15:40:22.733Z,5.24
2018-12-27T15:43:28.008Z,5.25
2018-12-27T15:46:33.418Z,5.26
2018-12-27T15:49:38.701Z,5.26
2018-12-27T15:52:44.121Z,5.28
2018-12-27T15:55:49.399Z,5.29
2018-12-27T15:58:54.910Z,5.30
2018-12-27T16:02:00.228Z,5.31
2018-12-27T16:05:05.799Z,5.30
2018-12-27T16:08:11.090Z,5.31
2018-12-27T16:11:16.432Z,5.31
2018-12-27T16:14:21.715Z,5.32
2018-12-27T16:17:27.171Z,5.32
2018-12-27T16:20:32.504Z,5.33
2018-12-27T16:23:37.963Z,5.33
2018-12-27T16:26:43.245Z,5.34
2018-12-27T16:29:48.854Z,5.34
2018-12-27T16:32:54.138Z,5.37
2018-12-27T16:35:59.544Z,5.39
2018-12-27T16:39:06.368Z,5.38
2018-12-27T16:42:11.804Z,5.38
2018-12-27T16:45:17.081Z,5.37
2018-12-27T16:48:24.272Z,5.37
2018-12-27T16:51:29.557Z,5.36
2018-12-27T16:54:34.918Z,5.35
2018-12-27T16:57:40.284Z,5.36
2018-12-27T17:00:45.801Z,5.36
2018-12-27T17:03:51.120Z,5.37
2018-12-27T17:06:56.571Z,5.39
2018-12-27T17:10:01.853Z,5.43
2018-12-27T17:13:07.369Z,5.43
2018-12-27T17:16:12.970Z,5.45
2018-12-27T17:19:18.366Z,5.47
2018-12-27T17:22:23.646Z,5.46
2018-12-27T17:25:29.159Z,5.51
2018-12-27T17:28:34.437Z,5.54
2018-12-27T17:31:39.948Z,5.55
2018-12-27T17:34:45.228Z,5.56
2018-12-27T17:37:50.635Z,5.56
2018-12-27T17:40:55.911Z,5.55
2018-12-27T17:44:01.431Z,5.57
2018-12-27T17:47:06.728Z,5.60
2018-12-27T17:50:12.116Z,5.60
2018-12-27T17:53:17.442Z,5.59
2018-12-27T17:56:22.909Z,5.60
2018-12-27T17:59:28.188Z,5.61
2018-12-27T18:02:34.414Z,5.62
2018-12-27T18:05:39.753Z,5.60
2018-12-27T18:08:45.141Z,5.59
2018-12-27T18:11:50.422Z,5.59
2018-12-27T18:15:02.450Z,5.55
2018-12-27T18:18:07.797Z,5.50
2018-12-27T18:21:13.161Z,5.44
2018-12-27T18:24:18.444Z,5.38
2018-12-27T18:27:23.834Z,5.35
2018-12-27T18:30:29.111Z,5.32
2018-12-27T18:33:34.616Z,5.30
2018-12-27T18:36:39.900Z,5.25
2018-12-27T18:39:45.312Z,5.23
2018-12-27T18:42:50.592Z,5.18
2018-12-27T18:45:56.410Z,5.17
2018-12-27T18:49:01.691Z,5.17
2018-12-27T18:52:07.099Z,5.14
2018-12-27T18:55:12.445Z,5.13
2018-12-27T18:58:17.892Z,5.09
2018-12-27T19:01:23.171Z,5.08
2018-12-27T19:04:28.540Z,5.07
2018-12-27T19:07:33.807Z,5.08
2018-12-27T19:10:39.204Z,5.03
2018-12-27T19:13:44.771Z,5.05
2018-12-27T19:16:50.165Z,5.01
2018-12-27T19:19:55.445Z,4.97
2018-12-27T19:23:08.392Z,4.95
2018-12-27T19:26:13.669Z,4.89
2018-12-27T19:29:19.127Z,4.89
2018-12-27T19:32:24.418Z,4.88
2018-12-27T19:35:33.012Z,4.88
2018-12-27T19:38:38.286Z,4.83
2018-12-27T19:41:43.681Z,4.80
2018-12-27T19:44:48.963Z,4.79
2018-12-27T19:47:54.987Z,4.76
2018-12-27T19:51:00.285Z,4.74
2018-12-27T19:54:05.773Z,4.70
2018-12-27T19:57:11.073Z,4.67
2018-12-27T20:00:16.743Z,4.67
2018-12-27T20:03:22.088Z,4.66
2018-12-27T20:06:27.480Z,4.60
2018-12-27T20:09:33.056Z,4.55
2018-12-27T20:12:38.449Z,4.52
2018-12-27T20:15:43.724Z,4.51
2018-12-27T20:18:49.173Z,4.47
2018-12-27T20:21:54.453Z,4.47
2018-12-27T20:25:00.152Z,4.42
2018-12-27T20:28:05.533Z,4.36
2018-12-27T20:31:11.131Z,4.34
2018-12-27T20:34:16.411Z,4.30
2018-12-27T20:37:21.886Z,4.29
2018-12-27T20:40:27.229Z,4.27
2018-12-27T20:43:32.616Z,4.25
2018-12-27T20:46:37.899Z,4.26
2018-12-27T20:49:43.263Z,4.24
2018-12-27T20:52:48.810Z,4.26
2018-12-27T20:55:54.200Z,4.24
2018-12-27T20:58:59.479Z,4.22
2018-12-27T21:02:05.195Z,4.25
2018-12-27T21:05:10.477Z,4.24
2018-12-27T21:08:15.846Z,4.27
2018-12-27T21:11:21.126Z,4.26
2018-12-27T21:14:26.578Z,4.26
2018-12-27T21:17:31.863Z,4.26
2018-12-27T21:20:37.279Z,4.26
2018-12-27T21:23:42.599Z,4.25
2018-12-27T21:26:48.054Z,4.24
2018-12-27T21:29:53.411Z,4.23
2018-12-27T21:32:58.847Z,4.25
2018-12-27T21:36:04.130Z,4.23
2018-12-27T21:39:09.606Z,4.25
2018-12-27T21:42:14.910Z,4.23
2018-12-27T21:45:20.339Z,4.26
2018-12-27T21:48:25.618Z,4.23
2018-12-27T21:51:31.280Z,4.22
2018-12-27T21:54:36.567Z,4.22
2018-12-27T21:57:42.021Z,4.22
2018-12-27T22:00:47.303Z,4.23
2018-12-27T22:03:52.809Z,4.23
2018-12-27T22:06:58.087Z,4.25
2018-12-27T22:10:03.702Z,4.23
2018-12-27T22:13:08.993Z,4.21
2018-12-27T22:16:14.594Z,4.21
2018-12-27T22:19:19.875Z,4.19
2018-12-27T22:22:25.283Z,4.20
2018-12-27T22:25:30.609Z,4.19
2018-12-27T22:28:36.016Z,4.20
2018-12-27T22:31:41.294Z,4.19
2018-12-27T22:34:46.772Z,4.19
2018-12-27T22:37:52.045Z,4.20
2018-12-27T22:40:57.556Z,4.20
2018-12-27T22:44:02.829Z,4.22
2018-12-27T22:47:08.500Z,4.19
2018-12-27T22:50:13.781Z,4.22
2018-12-27T22:53:19.239Z,4.22
2018-12-27T22:56:24.665Z,4.24
2018-12-27T22:59:30.088Z,4.25
2018-12-27T23:02:35.367Z,4.24
2018-12-27T23:05:40.726Z,4.24
2018-12-27T23:08:46.008Z,4.25
2018-12-27T23:11:51.413Z,4.24
2018-12-27T23:14:56.684Z,4.22
2018-12-27T23:18:02.101Z,4.23
2018-12-27T23:21:07.373Z,4.23
2018-12-27T23:24:12.788Z,4.21
2018-12-27T23:27:18.078Z,4.23
2018-12-27T23:30:23.482Z,4.23
2018-12-27T23:33:28.757Z,4.24
2018-12-27T23:36:34.116Z,4.24
2018-12-27T23:39:39.388Z,4.26
2018-12-27T23:42:44.961Z,4.26
2018-12-27T23:45:50.232Z,4.27
2018-12-27T23:48:55.655Z,4.28
2018-12-27T23:52:00.930Z,4.29
2018-12-27T23:55:06.531Z,4.30
2018-12-27T23:58:11.809Z,4.30
